createdAt,value
2017-08-27T00:01:25.534Z,99.90
2017-08-27T00:03:51.578Z,99.90
2017-08-27T00:06:17.647Z,99.90
2017-08-27T00:08:43.689Z,99.90
2017-08-27T00:11:09.760Z,99.90
2017-08-27T00:13:35.816Z,99.90
2017-08-27T00:16:01.902Z,99.90
2017-08-27T00:18:27.942Z,99.90
2017-08-27T00:20:54.001Z,99.90
2017-08-27T00:23:20.047Z,99.90
2017-08-27T00:25:46.135Z,99.90
2017-08-27T00:28:12.182Z,99.90
2017-08-27T00:30:38.286Z,99.90
2017-08-27T00:33:04.338Z,99.90
2017-08-27T00:35:30.386Z,99.90
2017-08-27T00:37:56.450Z,99.90
2017-08-27T00:40:22.650Z,99.90
2017-08-27T00:42:48.734Z,99.90
2017-08-27T00:45:14.943Z,99.90
2017-08-27T00:47:41.014Z,99.90
2017-08-27T00:50:07.070Z,99.90
2017-08-27T00:52:33.135Z,99.90
2017-08-27T00:54:59.198Z,99.90
2017-08-27T00:57:25.278Z,99.90
2017-08-27T00:59:51.348Z,99.90
2017-08-27T01:02:17.410Z,99.90
2017-08-27T01:04:43.454Z,99.90
2017-08-27T01:07:09.535Z,99.90
2017-08-27T01:09:36.690Z,99.90
2017-08-27T01:12:02.918Z,99.90
2017-08-27T01:14:28.973Z,99.90
2017-08-27T01:16:55.042Z,99.90
2017-08-27T01:19:21.090Z,99.90
2017-08-27T01:21:47.162Z,99.90
2017-08-27T01:24:13.214Z,99.90
2017-08-27T01:26:39.557Z,99.90
2017-08-27T01:29:05.598Z,99.90
2017-08-27T01:31:31.666Z,99.90
2017-08-27T01:33:57.715Z,99.90
2017-08-27T01:36:23.959Z,99.90
2017-08-27T01:38:50.006Z,99.90
2017-08-27T01:41:16.089Z,99.90
2017-08-27T01:43:42.224Z,99.90
2017-08-27T01:46:08.321Z,99.90
2017-08-27T01:48:34.368Z,99.90
2017-08-27T01:51:00.415Z,99.90
2017-08-27T01:53:26.486Z,99.90
2017-08-27T01:55:52.538Z,99.90
2017-08-27T01:58:18.599Z,99.90
2017-08-27T02:00:44.639Z,99.90
2017-08-27T02:03:10.701Z,99.90
2017-08-27T02:05:36.746Z,99.90
2017-08-27T02:08:02.819Z,99.90
2017-08-27T02:10:28.946Z,99.90
2017-08-27T02:12:55.012Z,99.90
2017-08-27T02:15:21.226Z,99.90
2017-08-27T02:17:47.286Z,99.90
2017-08-27T02:20:13.369Z,99.90
2017-08-27T02:22:39.430Z,99.90
2017-08-27T02:25:05.490Z,99.90
2017-08-27T02:27:31.634Z,99.90
2017-08-27T02:29:57.675Z,99.90
2017-08-27T02:32:23.843Z,99.90
2017-08-27T02:34:49.891Z,99.90
2017-08-27T02:37:15.979Z,99.90
2017-08-27T02:39:42.040Z,99.90
2017-08-27T02:42:08.098Z,99.90
2017-08-27T02:44:34.246Z,99.90
2017-08-27T02:47:00.309Z,99.90
2017-08-27T02:49:26.356Z,99.90
2017-08-27T02:51:52.541Z,99.90
2017-08-27T02:54:18.590Z,99.90
2017-08-27T02:56:44.653Z,99.90
2017-08-27T02:59:10.714Z,99.90
2017-08-27T03:01:36.778Z,99.90
2017-08-27T03:04:02.834Z,99.90
2017-08-27T03:06:28.902Z,99.90
2017-08-27T03:08:54.962Z,99.90
2017-08-27T03:11:21.027Z,99.90
2017-08-27T03:13:47.133Z,99.90
2017-08-27T03:16:13.202Z,99.90
2017-08-27T03:18:39.262Z,99.90
2017-08-27T03:21:05.370Z,99.90
2017-08-27T03:23:31.431Z,99.90
2017-08-27T03:25:57.522Z,99.90
2017-08-27T03:28:23.566Z,99.90
2017-08-27T03:30:49.614Z,99.90
2017-08-27T03:33:15.690Z,99.90
2017-08-27T03:35:41.748Z,99.90
2017-08-27T03:38:07.894Z,99.90
2017-08-27T03:40:33.955Z,99.90
2017-08-27T03:43:00.033Z,99.90
2017-08-27T03:45:26.086Z,99.90
2017-08-27T03:47:52.138Z,99.90
2017-08-27T03:50:20.861Z,99.90
2017-08-27T03:52:46.922Z,99.90
2017-08-27T03:55:12.989Z,99.90
2017-08-27T03:57:39.059Z,99.90
2017-08-27T04:00:05.142Z,99.90
2017-08-27T04:02:31.185Z,99.90
2017-08-27T04:04:57.242Z,99.90
2017-08-27T04:07:23.282Z,99.90
2017-08-27T04:09:49.369Z,99.90
2017-08-27T04:12:15.423Z,99.90
2017-08-27T04:14:41.482Z,99.90
2017-08-27T04:17:07.534Z,99.90
2017-08-27T04:19:33.597Z,99.90
2017-08-27T04:21:59.784Z,99.90
2017-08-27T04:24:26.614Z,99.90
2017-08-27T04:26:52.685Z,99.90
2017-08-27T04:29:18.748Z,99.90
2017-08-27T04:31:44.959Z,99.90
2017-08-27T04:34:11.025Z,99.90
2017-08-27T04:36:37.065Z,99.90
2017-08-27T04:39:03.169Z,99.90
2017-08-27T04:41:29.215Z,99.90
2017-08-27T04:43:55.269Z,99.90
2017-08-27T04:46:21.334Z,99.90
2017-08-27T04:48:48.126Z,99.90
2017-08-27T04:51:14.195Z,99.90
2017-08-27T04:53:40.259Z,99.90
2017-08-27T04:56:06.337Z,99.90
2017-08-27T04:58:32.393Z,99.90
2017-08-27T05:00:58.502Z,99.90
2017-08-27T05:03:24.554Z,99.90
2017-08-27T05:05:50.605Z,99.90
2017-08-27T05:08:16.658Z,99.90
2017-08-27T05:10:42.826Z,99.90
2017-08-27T05:13:08.922Z,99.90
2017-08-27T05:15:34.987Z,99.90
2017-08-27T05:18:01.066Z,99.90
2017-08-27T05:20:27.357Z,99.90
2017-08-27T05:22:53.405Z,99.90
2017-08-27T05:25:19.474Z,99.90
2017-08-27T05:27:45.573Z,99.90
2017-08-27T05:30:11.645Z,99.90
2017-08-27T05:32:37.688Z,99.90
2017-08-27T05:35:03.790Z,99.90
2017-08-27T05:37:29.854Z,99.90
2017-08-27T05:39:55.902Z,99.90
2017-08-27T05:42:22.063Z,99.90
2017-08-27T05:44:48.114Z,99.90
2017-08-27T05:47:14.197Z,99.90
2017-08-27T05:49:40.241Z,99.90
2017-08-27T05:52:06.306Z,99.90
2017-08-27T05:54:32.371Z,99.90
2017-08-27T05:56:58.458Z,99.90
2017-08-27T05:59:24.702Z,99.90
2017-08-27T06:01:50.774Z,99.90
2017-08-27T06:04:16.822Z,99.90
2017-08-27T06:06:42.873Z,99.90
2017-08-27T06:09:08.967Z,99.90
2017-08-27T06:11:35.005Z,99.90
2017-08-27T06:14:01.074Z,99.90
2017-08-27T06:16:27.118Z,99.90
2017-08-27T06:18:53.178Z,99.90
2017-08-27T06:21:19.238Z,99.90
2017-08-27T06:23:45.314Z,99.90
2017-08-27T06:26:11.436Z,99.90
2017-08-27T06:28:37.510Z,99.90
2017-08-27T06:31:03.583Z,99.90
2017-08-27T06:33:29.644Z,99.90
2017-08-27T06:35:55.694Z,99.90
2017-08-27T06:38:21.756Z,99.90
2017-08-27T06:40:47.809Z,99.90
2017-08-27T06:43:13.895Z,99.90
2017-08-27T06:45:41.134Z,99.90
2017-08-27T06:48:07.182Z,99.90
2017-08-27T06:50:33.268Z,99.90
2017-08-27T06:52:59.311Z,99.90
2017-08-27T06:55:25.373Z,99.90
2017-08-27T06:57:51.410Z,99.90
2017-08-27T07:00:17.466Z,99.90
2017-08-27T07:02:43.628Z,99.90
2017-08-27T07:05:09.718Z,99.90
2017-08-27T07:07:35.769Z,99.90
2017-08-27T07:10:01.834Z,99.90
2017-08-27T07:12:27.894Z,99.90
2017-08-27T07:14:53.937Z,99.90
2017-08-27T07:17:20.010Z,99.90
2017-08-27T07:19:46.054Z,99.70
2017-08-27T07:22:12.122Z,99.50
2017-08-27T07:24:38.185Z,98.50
2017-08-27T07:27:04.266Z,98.80
2017-08-27T07:29:30.392Z,99.00
2017-08-27T07:31:56.458Z,98.90
2017-08-27T07:34:22.506Z,99.40
2017-08-27T07:36:48.562Z,98.60
2017-08-27T07:39:14.611Z,98.00
2017-08-27T07:41:40.693Z,98.60
2017-08-27T07:44:06.814Z,98.90
2017-08-27T07:46:33.762Z,98.90
2017-08-27T07:48:59.860Z,98.40
2017-08-27T07:51:25.917Z,98.10
2017-08-27T07:53:51.959Z,97.60
2017-08-27T07:56:18.013Z,97.40
2017-08-27T07:58:44.054Z,97.00
2017-08-27T08:01:10.111Z,97.20
2017-08-27T08:03:36.159Z,97.10
2017-08-27T08:06:02.253Z,96.80
2017-08-27T08:08:28.315Z,96.50
2017-08-27T08:10:54.467Z,97.20
2017-08-27T08:13:20.518Z,97.10
2017-08-27T08:15:46.562Z,97.20
2017-08-27T08:18:12.617Z,96.70
2017-08-27T08:20:38.666Z,96.30
2017-08-27T08:23:04.726Z,95.80
2017-08-27T08:25:30.840Z,95.30
2017-08-27T08:27:56.966Z,95.70
2017-08-27T08:30:23.038Z,94.90
2017-08-27T08:32:49.111Z,94.90
2017-08-27T08:35:15.263Z,94.40
2017-08-27T08:37:41.358Z,94.80
2017-08-27T08:40:07.408Z,94.90
2017-08-27T08:42:33.482Z,94.40
2017-08-27T08:44:59.542Z,94.60
2017-08-27T08:47:25.614Z,94.20
2017-08-27T08:49:51.674Z,94.10
2017-08-27T08:52:17.768Z,93.30
2017-08-27T08:54:43.817Z,92.80
2017-08-27T08:57:09.892Z,92.80
2017-08-27T08:59:35.928Z,93.20
2017-08-27T09:02:02.455Z,92.40
2017-08-27T09:04:28.510Z,92.90
2017-08-27T09:06:54.648Z,91.90
2017-08-27T09:09:20.702Z,91.40
2017-08-27T09:11:46.941Z,90.90
2017-08-27T09:14:12.974Z,90.80
2017-08-27T09:16:39.050Z,91.10
2017-08-27T09:19:05.094Z,90.60
2017-08-27T09:21:31.154Z,87.20
2017-08-27T09:23:57.213Z,87.70
2017-08-27T09:26:23.278Z,88.90
2017-08-27T09:28:49.446Z,89.40
2017-08-27T09:31:15.538Z,90.20
2017-08-27T09:33:41.590Z,90.60
2017-08-27T09:36:07.714Z,87.00
2017-08-27T09:38:33.779Z,89.00
2017-08-27T09:40:59.834Z,87.00
2017-08-27T09:43:25.905Z,86.50
2017-08-27T09:45:51.946Z,85.60
2017-08-27T09:48:18.101Z,86.80
2017-08-27T09:50:45.142Z,84.00
2017-08-27T09:53:11.222Z,84.30
2017-08-27T09:55:37.273Z,83.60
2017-08-27T09:58:03.366Z,85.40
2017-08-27T10:00:29.415Z,84.90
2017-08-27T10:02:55.495Z,83.40
2017-08-27T10:05:36.542Z,83.50
2017-08-27T10:08:02.627Z,84.20
2017-08-27T10:10:28.687Z,83.60
2017-08-27T10:12:54.751Z,83.50
2017-08-27T10:15:20.855Z,82.60
2017-08-27T10:17:46.921Z,82.00
2017-08-27T10:20:12.978Z,83.70
2017-08-27T10:22:39.033Z,83.20
2017-08-27T10:25:05.127Z,83.20
2017-08-27T10:27:31.279Z,82.70
2017-08-27T10:29:57.313Z,82.90
2017-08-27T10:32:23.371Z,81.60
2017-08-27T10:34:49.437Z,83.40
2017-08-27T10:37:15.554Z,78.20
2017-08-27T10:39:41.606Z,78.40
2017-08-27T10:42:07.735Z,78.10
2017-08-27T10:44:33.786Z,77.90
2017-08-27T10:47:00.047Z,76.50
2017-08-27T10:49:26.898Z,77.00
2017-08-27T10:51:52.978Z,76.50
2017-08-27T10:54:19.060Z,76.20
2017-08-27T10:56:45.107Z,77.50
2017-08-27T10:59:11.182Z,76.90
2017-08-27T11:01:37.242Z,75.80
2017-08-27T11:04:03.294Z,76.30
2017-08-27T11:06:29.411Z,77.50
2017-08-27T11:08:55.491Z,77.80
2017-08-27T11:11:21.534Z,78.60
2017-08-27T11:13:47.616Z,77.10
2017-08-27T11:16:13.682Z,78.90
2017-08-27T11:18:39.774Z,76.10
2017-08-27T11:21:06.957Z,76.10
2017-08-27T11:23:33.018Z,73.50
2017-08-27T11:25:59.081Z,73.70
2017-08-27T11:28:25.225Z,73.40
2017-08-27T11:30:51.267Z,74.30
2017-08-27T11:33:17.337Z,74.90
2017-08-27T11:35:43.386Z,75.80
2017-08-27T11:38:09.451Z,73.20
2017-08-27T11:40:35.582Z,73.40
2017-08-27T11:43:01.674Z,74.60
2017-08-27T11:45:27.730Z,75.70
2017-08-27T11:47:53.831Z,74.80
2017-08-27T11:50:19.886Z,75.00
2017-08-27T11:52:46.058Z,76.50
2017-08-27T11:55:12.106Z,73.30
2017-08-27T11:57:38.146Z,72.90
2017-08-27T12:00:04.229Z,73.30
2017-08-27T12:02:30.292Z,73.50
2017-08-27T12:04:56.353Z,74.30
2017-08-27T12:07:22.414Z,73.40
2017-08-27T12:09:48.487Z,71.80
2017-08-27T12:12:14.589Z,70.60
2017-08-27T12:14:43.301Z,70.70
2017-08-27T12:17:09.346Z,70.60
2017-08-27T12:19:35.439Z,72.80
2017-08-27T12:22:01.506Z,71.10
2017-08-27T12:24:27.574Z,71.70
2017-08-27T12:26:53.640Z,72.40
2017-08-27T12:29:19.823Z,73.90
2017-08-27T12:31:45.900Z,74.60
2017-08-27T12:34:11.967Z,73.20
2017-08-27T12:36:38.019Z,73.40
2017-08-27T12:39:04.094Z,74.20
2017-08-27T12:41:30.139Z,74.00
2017-08-27T12:43:56.218Z,72.00
2017-08-27T12:46:22.266Z,71.50
2017-08-27T12:48:48.326Z,67.30
2017-08-27T12:51:14.378Z,64.40
2017-08-27T12:53:40.450Z,60.00
2017-08-27T12:56:06.495Z,56.90
2017-08-27T12:58:32.546Z,56.30
2017-08-27T13:00:58.799Z,55.70
2017-08-27T13:03:25.075Z,56.00
2017-08-27T13:05:51.169Z,57.90
2017-08-27T13:08:17.327Z,55.70
2017-08-27T13:10:43.413Z,52.30
2017-08-27T13:13:09.457Z,53.60
2017-08-27T13:15:35.522Z,54.90
2017-08-27T13:18:01.574Z,52.30
2017-08-27T13:20:27.630Z,51.00
2017-08-27T13:22:53.673Z,51.80
2017-08-27T13:25:19.746Z,50.10
2017-08-27T13:27:46.011Z,48.00
2017-08-27T13:30:12.090Z,47.00
2017-08-27T13:32:38.162Z,47.60
2017-08-27T13:35:04.230Z,48.00
2017-08-27T13:37:30.274Z,48.10
2017-08-27T13:39:56.342Z,47.70
2017-08-27T13:42:22.402Z,50.20
2017-08-27T13:44:48.482Z,48.80
2017-08-27T13:47:14.535Z,47.40
2017-08-27T13:49:40.604Z,48.60
2017-08-27T13:52:06.650Z,51.90
2017-08-27T13:54:32.982Z,53.80
2017-08-27T13:56:59.088Z,55.40
2017-08-27T13:59:25.146Z,56.30
2017-08-27T14:01:51.218Z,55.30
2017-08-27T14:04:17.318Z,53.20
2017-08-27T14:06:43.374Z,51.80
2017-08-27T14:09:09.422Z,49.80
2017-08-27T14:11:35.490Z,50.20
2017-08-27T14:14:01.606Z,50.40
2017-08-27T14:16:27.666Z,51.00
2017-08-27T14:18:53.706Z,49.10
2017-08-27T14:21:19.761Z,51.20
2017-08-27T14:23:45.809Z,52.80
2017-08-27T14:26:11.906Z,54.60
2017-08-27T14:28:37.950Z,56.00
2017-08-27T14:31:04.048Z,56.10
2017-08-27T14:36:00.723Z,57.00
2017-08-27T14:38:26.996Z,58.00
2017-08-27T14:40:53.472Z,58.70
2017-08-27T14:43:19.666Z,59.40
2017-08-27T14:45:45.745Z,59.00
2017-08-27T14:48:11.806Z,56.70
2017-08-27T14:50:37.874Z,55.60
2017-08-27T14:53:03.930Z,54.60
2017-08-27T14:55:30.040Z,52.80
2017-08-27T14:57:56.144Z,50.80
2017-08-27T15:00:22.296Z,50.50
2017-08-27T15:02:48.358Z,50.20
2017-08-27T15:05:14.424Z,47.30
2017-08-27T15:07:40.498Z,45.90
2017-08-27T15:10:06.581Z,47.10
2017-08-27T15:12:32.678Z,46.90
2017-08-27T15:14:59.082Z,49.70
2017-08-27T15:17:25.147Z,50.60
2017-08-27T15:19:51.254Z,49.80
2017-08-27T15:22:17.310Z,49.80
2017-08-27T15:24:43.382Z,50.80
2017-08-27T15:27:09.489Z,49.50
2017-08-27T15:29:35.543Z,51.10
2017-08-27T15:32:01.632Z,52.80
2017-08-27T15:34:27.674Z,54.70
2017-08-27T15:36:53.743Z,56.60
2017-08-27T15:39:19.805Z,57.90
2017-08-27T15:41:45.872Z,58.70
2017-08-27T15:44:11.926Z,60.10
2017-08-27T15:46:38.010Z,61.50
2017-08-27T15:49:04.083Z,61.70
2017-08-27T15:51:30.166Z,63.50
2017-08-27T15:53:56.226Z,63.20
2017-08-27T15:56:22.294Z,62.90
2017-08-27T15:58:48.347Z,63.70
2017-08-27T16:01:14.414Z,64.10
2017-08-27T16:03:40.491Z,65.30
2017-08-27T16:06:06.555Z,67.10
2017-08-27T16:08:32.617Z,66.80
2017-08-27T16:10:58.711Z,66.70
2017-08-27T16:13:24.858Z,66.10
2017-08-27T16:15:50.947Z,65.90
2017-08-27T16:18:16.989Z,65.10
2017-08-27T16:20:43.126Z,62.10
2017-08-27T16:23:09.199Z,60.60
2017-08-27T16:25:35.294Z,59.50
2017-08-27T16:28:01.378Z,57.30
2017-08-27T16:30:27.460Z,57.60
2017-08-27T16:32:53.622Z,57.90
2017-08-27T16:35:19.806Z,58.30
2017-08-27T16:37:45.941Z,59.90
2017-08-27T16:40:12.002Z,60.70
2017-08-27T16:42:38.102Z,62.80
2017-08-27T16:45:04.178Z,62.60
2017-08-27T16:47:37.534Z,61.10
2017-08-27T16:50:03.657Z,60.40
2017-08-27T16:52:29.767Z,58.90
2017-08-27T16:54:55.821Z,58.70
2017-08-27T16:57:21.896Z,58.10
2017-08-27T16:59:47.956Z,57.80
2017-08-27T17:02:14.018Z,58.40
2017-08-27T17:04:40.068Z,58.30
2017-08-27T17:07:06.141Z,57.70
2017-08-27T17:09:32.242Z,57.50
2017-08-27T17:11:58.326Z,58.70
2017-08-27T17:14:24.394Z,59.00
2017-08-27T17:16:50.475Z,57.60
2017-08-27T17:19:16.543Z,58.70
2017-08-27T17:21:42.619Z,58.50
2017-08-27T17:24:08.694Z,58.10
2017-08-27T17:26:34.805Z,59.20
2017-08-27T17:29:00.879Z,61.40
2017-08-27T17:31:26.949Z,60.30
2017-08-27T17:33:53.042Z,60.70
2017-08-27T17:36:19.106Z,61.90
2017-08-27T17:38:45.256Z,62.60
2017-08-27T17:41:11.323Z,63.60
2017-08-27T17:43:37.445Z,63.90
2017-08-27T17:46:03.691Z,64.30
2017-08-27T17:48:29.777Z,64.80
2017-08-27T17:50:55.845Z,66.50
2017-08-27T17:53:21.922Z,67.30
2017-08-27T17:55:47.983Z,68.30
2017-08-27T17:58:14.071Z,69.20
2017-08-27T18:00:40.138Z,70.50
2017-08-27T18:03:06.251Z,71.80
2017-08-27T18:05:32.352Z,72.90
2017-08-27T18:07:58.426Z,73.60
2017-08-27T18:10:24.506Z,75.10
2017-08-27T18:12:50.579Z,76.20
2017-08-27T18:15:16.705Z,77.40
2017-08-27T18:17:42.770Z,78.70
2017-08-27T18:20:08.837Z,80.00
2017-08-27T18:22:34.883Z,80.50
2017-08-27T18:25:00.921Z,81.20
2017-08-27T18:27:27.018Z,81.80
2017-08-27T18:29:53.095Z,82.70
2017-08-27T18:32:19.166Z,83.20
2017-08-27T18:34:45.250Z,84.80
2017-08-27T18:37:12.405Z,85.50
2017-08-27T18:39:38.510Z,86.70
2017-08-27T18:42:04.563Z,86.80
2017-08-27T18:44:30.657Z,86.70
2017-08-27T18:46:56.697Z,87.60
2017-08-27T18:49:22.802Z,88.10
2017-08-27T18:51:49.119Z,88.20
2017-08-27T18:54:16.072Z,89.30
2017-08-27T18:56:42.504Z,89.20
2017-08-27T18:59:08.566Z,90.00
2017-08-27T19:01:34.626Z,90.40
2017-08-27T19:04:00.678Z,90.40
2017-08-27T19:06:26.750Z,90.50
2017-08-27T19:08:52.785Z,90.90
2017-08-27T19:11:18.865Z,90.80
2017-08-27T19:13:45.021Z,91.10
2017-08-27T19:16:11.142Z,91.20
2017-08-27T19:18:37.446Z,91.40
2017-08-27T19:21:03.594Z,91.60
2017-08-27T19:23:29.659Z,91.70
2017-08-27T19:25:55.746Z,91.90
2017-08-27T19:28:21.838Z,91.90
2017-08-27T19:30:48.257Z,92.10
2017-08-27T19:33:14.537Z,92.10
2017-08-27T19:35:40.609Z,92.40
2017-08-27T19:38:06.649Z,92.70
2017-08-27T19:40:32.721Z,92.90
2017-08-27T19:42:58.772Z,93.40
2017-08-27T19:45:24.852Z,93.90
2017-08-27T19:47:50.946Z,93.50
2017-08-27T19:50:17.031Z,93.40
2017-08-27T19:52:43.090Z,93.50
2017-08-27T19:55:09.154Z,93.80
2017-08-27T19:57:35.220Z,93.80
2017-08-27T20:00:01.281Z,94.00
2017-08-27T20:02:28.086Z,94.40
2017-08-27T20:04:54.165Z,94.30
2017-08-27T20:07:20.222Z,94.40
2017-08-27T20:09:46.302Z,94.50
2017-08-27T20:12:12.495Z,94.70
2017-08-27T20:14:38.566Z,94.60
2017-08-27T20:17:04.629Z,94.70
2017-08-27T20:19:30.723Z,95.00
2017-08-27T20:21:56.790Z,95.20
2017-08-27T20:24:22.865Z,95.20
2017-08-27T20:26:48.918Z,95.30
2017-08-27T20:29:15.017Z,95.40
2017-08-27T20:31:41.079Z,95.50
2017-08-27T20:34:07.130Z,95.50
2017-08-27T20:36:33.187Z,95.60
2017-08-27T20:38:59.237Z,95.70
2017-08-27T20:41:25.306Z,95.80
2017-08-27T20:43:51.364Z,95.80
2017-08-27T20:46:17.422Z,96.20
2017-08-27T20:48:43.469Z,96.00
2017-08-27T20:51:09.547Z,96.10
2017-08-27T20:53:35.597Z,96.10
2017-08-27T20:56:01.663Z,96.20
2017-08-27T20:58:27.706Z,96.30
2017-08-27T21:00:53.774Z,96.20
2017-08-27T21:03:19.842Z,96.10
2017-08-27T21:05:45.922Z,96.20
2017-08-27T21:08:11.994Z,96.10
2017-08-27T21:10:38.053Z,96.20
2017-08-27T21:13:04.709Z,96.30
2017-08-27T21:15:30.789Z,96.50
2017-08-27T21:17:56.869Z,96.70
2017-08-27T21:20:22.934Z,96.90
2017-08-27T21:22:49.034Z,97.10
2017-08-27T21:25:15.149Z,97.30
2017-08-27T21:27:41.234Z,97.50
2017-08-27T21:30:07.326Z,97.80
2017-08-27T21:32:33.453Z,97.90
2017-08-27T21:34:59.534Z,97.90
2017-08-27T21:37:25.626Z,97.70
2017-08-27T21:39:51.686Z,97.80
2017-08-27T21:42:17.742Z,97.90
2017-08-27T21:44:43.906Z,97.80
2017-08-27T21:47:09.958Z,97.80
2017-08-27T21:49:36.017Z,97.70
2017-08-27T21:52:02.082Z,97.70
2017-08-27T21:54:28.157Z,97.60
2017-08-27T21:56:54.207Z,97.50
2017-08-27T21:59:20.298Z,97.60
2017-08-27T22:01:46.350Z,97.30
2017-08-27T22:04:12.419Z,97.00
2017-08-27T22:06:38.467Z,96.90
2017-08-27T22:09:04.530Z,97.20
2017-08-27T22:11:30.574Z,97.00
2017-08-27T22:13:56.638Z,96.90
2017-08-27T22:16:22.685Z,97.00
2017-08-27T22:18:48.746Z,96.90
2017-08-27T22:21:14.811Z,96.70
2017-08-27T22:23:40.860Z,97.10
2017-08-27T22:26:07.018Z,97.20
2017-08-27T22:28:33.107Z,97.20
2017-08-27T22:30:59.198Z,97.20
2017-08-27T22:33:25.258Z,97.30
2017-08-27T22:35:51.323Z,97.30
2017-08-27T22:38:17.367Z,97.30
2017-08-27T22:40:43.429Z,97.50
2017-08-27T22:43:09.494Z,97.70
2017-08-27T22:45:35.617Z,97.90
2017-08-27T22:48:01.674Z,98.00
2017-08-27T22:50:27.754Z,98.00
2017-08-27T22:52:53.818Z,97.90
2017-08-27T22:55:19.878Z,97.90
2017-08-27T22:57:45.961Z,97.80
2017-08-27T23:00:12.027Z,97.70
2017-08-27T23:02:38.101Z,97.70
2017-08-27T23:05:04.158Z,97.80
2017-08-27T23:07:30.223Z,97.90
2017-08-27T23:09:56.278Z,97.80
2017-08-27T23:12:22.375Z,97.70
2017-08-27T23:14:48.429Z,97.70
2017-08-27T23:17:14.491Z,97.60
2017-08-27T23:19:40.568Z,97.70
2017-08-27T23:22:06.626Z,97.90
2017-08-27T23:24:32.718Z,98.00
2017-08-27T23:26:58.774Z,98.10
2017-08-27T23:29:24.867Z,98.10
2017-08-27T23:31:50.910Z,98.10
2017-08-27T23:34:17.006Z,98.00
2017-08-27T23:36:43.064Z,97.80
2017-08-27T23:39:09.149Z,97.90
2017-08-27T23:41:35.194Z,97.80
2017-08-27T23:44:01.262Z,97.60
2017-08-27T23:46:27.310Z,97.80
2017-08-27T23:48:53.377Z,97.80
2017-08-27T23:51:19.439Z,97.80
2017-08-27T23:53:46.025Z,97.70
2017-08-27T23:56:12.079Z,97.70
2017-08-27T23:58:38.151Z,97.70
